• Join FlightAware (Why Join?)
  • Login
  • US Flag 
11:37PM EDT


 

Airport Tracker/Info


-or-


 

Live Flight TrackerFlight Track Log ✈ UAL4257 ✈ 22-Apr-2013 ✈ MMMY / MTY - KIAH

Flight Track Log - Related Links

Times and Time Zones

All times are in EDT time to prevent confusion due to time zone crossing. See the UAL4257 flight status page for this flight to view local times or setup timezone preferences in your user account.

Time Position Orientation Groundspeed Altitude Reporting Facility
EDT Latitude Longitude Course Direction KTS MPH feet Rate Location/Type
12:13PM 25.8142 -99.8186 44° Northeast 294 338 10,600  Level Houston Center
12:14PM 25.8903 -99.7572 36° Northeast 318 366 11,600 1,080 Climbing Houston Center
12:15PM 26.3475 -99.4934 44° Northeast  Level Estimated
12:15PM 25.9867 -99.6750 37° Northeast 346 398 12,900  Level Houston Center
12:16PM 26.4208 -99.4137 44° Northeast  Level Estimated
12:16PM 26.0683 -99.6031 38° Northeast 362 417 14,100  Level Houston Center
12:17PM 26.4942 -99.3338 44° Northeast  Level Estimated
12:17PM 26.1522 -99.5322 37° Northeast 371 427 15,200  Level Houston Center
12:18PM 26.5675 -99.2538 44° Northeast  Level Estimated
12:18PM 26.2372 -99.4597 37° Northeast 378 435 16,300  Level Houston Center
12:19PM 26.3253 -99.3875 36° Northeast 386 444 17,300 960 Climbing Houston Center
12:20PM 26.4144 -99.3114 37° Northeast 394 453 18,300 1,260 Climbing Houston Center
12:21PM 26.5139 -99.2094 43° Northeast 399 459 20,000 1,560 Climbing Houston Center
12:22PM 26.5958 -99.1228 43° Northeast 403 464 21,600 1,500 Climbing Houston Center
12:23PM 26.6808 -99.0406 41° Northeast 406 467 23,100 1,320 Climbing Houston Center
12:24PM 26.7672 -98.9569 41° Northeast 410 472 24,400 1,140 Climbing Houston Center
12:26PM 26.8561 -98.8722 40° Northeast 417 480 25,500 1,080 Climbing Houston Center
12:27PM 26.9647 -98.7675 41° Northeast 429 494 26,700 1,020 Climbing Houston Center
12:28PM 27.0556 -98.6767 42° Northeast 436 502 27,700 840 Climbing Houston Center
12:29PM 27.1483 -98.5872 41° Northeast 442 509 28,500 600 Climbing Houston Center
12:30PM 27.2414 -98.4950 41° Northeast 447 514 29,000 240 Climbing Houston Center
12:31PM 27.3386 -98.3992 41° Northeast 461 531 29,000  Level Houston Center
12:32PM 27.4592 -98.2789 42° Northeast 479 551 29,000  Level Houston Center
12:33PM 27.5631 -98.1783 41° Northeast 491 565 29,000  Level Houston Center
12:34PM 27.6636 -98.0783 41° Northeast 488 562 29,000  Level Houston Center
12:35PM 27.7653 -97.9783 41° Northeast 487 560 29,000  Level Houston Center
12:36PM 27.8764 -97.8975 33° Northeast 478 550 29,000  Level Houston Center
12:37PM 28.0142 -97.8139 28° Northeast 471 542 29,000  Level Houston Center
12:38PM 28.1269 -97.7458 28° Northeast 472 543 29,000  Level Houston Center
12:39PM 28.2292 -97.6456 41° Northeast 485 558 29,000  Level Houston Center
12:40PM 28.3258 -97.5361 45° Northeast 490 564 29,000  Level Houston Center
12:41PM 28.4231 -97.4275 44° Northeast 490 564 29,000  Level Houston Center
12:42PM 28.5403 -97.2992 44° Northeast 488 562 29,000  Level Houston Center
12:43PM 28.6361 -97.1936 44° Northeast 482 555 29,000  Level Houston Center
12:44PM 28.7297 -97.0886 45° Northeast 475 547 29,000 -300 Level Houston Center
12:45PM 28.8228 -96.9842 45° Northeast 471 542 28,500 -1,260 Descending Houston Center
12:46PM 28.9172 -96.8792 44° Northeast 475 547 26,500 -2,400 Descending Houston Center
12:47PM 29.0294 -96.7519 45° Northeast 475 547 23,600 -2,700 Descending Houston Center
12:48PM 29.1186 -96.6522 44° Northeast 459 528 21,000 -2,640 Descending Houston Center
12:49PM 29.2042 -96.5553 45° Northeast 441 507 18,200 -2,580 Descending Houston Center
12:50PM 29.2875 -96.4617 44° Northeast 426 490 15,700 -2,760 Descending Houston Center
12:51PM 29.3256 -96.4186 45° Northeast 413 475 14,400 -3,240 Descending Houston Center
12:51PM 29.3828 -96.3519 45° Northeast 409 471 12,400 -2,580 Descending Houston Center
12:52PM 29.4253 -96.3047 44° Northeast 394 453 11,200 -1,860 Descending Houston Center
12:52PM 29.4583 -96.2678 44° Northeast 388 447 10,500 -1,080 Descending Houston Center
12:53PM 29.4958 -96.2225 46° Northeast 355 409 10,100 -540 Descending Houston Center
12:53PM 29.5272 -96.1875 44° Northeast 360 414 10,000 -120 Descending Houston Center
12:54PM 29.5617 -96.1336 54° Northeast 337 388 10,000  Level Houston Center
12:54PM 29.5800 -96.0997 58° Northeast 339 390 10,000  Level Houston Center
12:55PM 29.6100 -96.0369 61° Northeast 341 392 10,000 -120 Level Houston Center
12:56PM 29.6253 -96.0072 59° Northeast 335 386 9,900 -720 Descending Houston Center
12:56PM 29.6653 -95.9731 37° Northeast 263 303 9,300 -900 Descending Houston Center
12:57PM 29.6878 -95.9594 28° Northeast 288 331 9,000 -1,140 Descending Houston Center
12:57PM 29.7392 -95.9308 26° Northeast 277 319 8,200 -1,380 Descending Houston Center
12:58PM 29.7722 -95.9139 24° Northeast 279 321 7,600 -1,140 Descending Houston Center
12:58PM 29.8053 -95.8944 27° Northeast 245 282 7,100 -600 Descending Houston Center
12:59PM 29.8333 -95.8786 26° Northeast 255 293 7,000 -120 Descending Houston Center
12:59PM 29.8628 -95.8564 33° Northeast 239 275 7,000 -240 Level Houston Center
01:00PM 29.8872 -95.8342 38° Northeast 242 278 6,800 -600 Descending Houston Center
01:00PM 29.9128 -95.8050 45° Northeast 243 280 6,400 -720 Descending Houston Center
01:01PM 29.9350 -95.7800 44° Northeast 240 276 6,100 -720 Descending Houston Center
01:01PM 29.9578 -95.7442 54° Northeast 230 265 5,700 -720 Descending Houston Center
01:02PM 29.9744 -95.7203 51° Northeast 235 270 5,400 -600 Descending Houston Center
01:02PM 29.9900 -95.6803 66° East 235 270 5,100 -540 Descending Houston Center
01:03PM 29.9933 -95.6506 83° East 233 268 4,900 -720 Descending Houston Center
01:03PM 29.9919 -95.6078 92° East 224 258 4,400 -1,260 Descending Houston Center
01:04PM 29.9928 -95.5622 89° East 231 266 3,600 -1,320 Descending Houston Center
01:04PM 29.9922 -95.5400 92° East 230 265 3,200 -1,200 Descending Houston Center
01:05PM 29.9925 -95.4906 90° East 229 264 2,400 -1,200 Descending Houston Center
01:05PM 29.9922 -95.4703 91° East 217 250 2,000 -1,020 Descending Houston Center
01:06PM 29.9947 -95.4308 86° East 200 230 1,400 -840 Descending Houston Center
01:06PM 29.9933 -95.4144 96° East 137 158 1,200 -720 Descending Houston Center
01:07PM 29.9942 -95.3861 88° East 159 183 700 -780 Descending Houston Center
01:07PM 29.9936 -95.3711 92° East 134 154 400 -300 Descending Houston Center
01:08PM 29.9947 -95.3356 88° East 150 173 400  Level Houston Center
01:10PM 29.9833 -95.3333 North  Level FlightAware Approximate